createdAt,value
2018-01-17T00:02:12.330Z,86.40
2018-01-17T00:04:40.581Z,86.40
2018-01-17T00:07:08.061Z,86.40
2018-01-17T00:09:35.571Z,86.80
2018-01-17T00:12:03.821Z,86.60
2018-01-17T00:14:31.304Z,86.60
2018-01-17T00:16:58.829Z,86.50
2018-01-17T00:19:26.328Z,86.60
2018-01-17T00:21:53.833Z,86.30
2018-01-17T00:24:22.246Z,85.80
2018-01-17T00:26:49.736Z,85.80
2018-01-17T00:29:17.218Z,85.50
2018-01-17T00:31:44.736Z,85.50
2018-01-17T00:34:12.990Z,86.10
2018-01-17T00:36:40.488Z,86.00
2018-01-17T00:39:08.756Z,86.50
2018-01-17T00:41:36.254Z,86.50
2018-01-17T00:44:04.515Z,86.50
2018-01-17T00:46:32.041Z,86.50
2018-01-17T00:48:59.547Z,86.00
2018-01-17T00:51:27.060Z,85.40
2018-01-17T00:53:54.582Z,85.40
2018-01-17T00:56:22.088Z,85.60
2018-01-17T00:58:50.330Z,85.80
2018-01-17T01:01:17.834Z,85.80
2018-01-17T01:03:45.326Z,86.10
2018-01-17T01:06:13.618Z,86.70
2018-01-17T01:08:41.177Z,86.70
2018-01-17T01:11:09.439Z,86.40
2018-01-17T01:13:36.922Z,86.40
2018-01-17T01:16:04.448Z,86.30
2018-01-17T01:18:31.947Z,86.40
2018-01-17T01:20:59.438Z,86.80
2018-01-17T01:23:27.715Z,87.50
2018-01-17T01:25:55.195Z,86.80
2018-01-17T01:28:22.694Z,86.90
2018-01-17T01:30:50.198Z,87.10
2018-01-17T01:33:17.690Z,87.40
2018-01-17T01:35:45.186Z,87.50
2018-01-17T01:38:13.463Z,87.70
2018-01-17T01:40:41.744Z,87.60
2018-01-17T01:43:09.247Z,87.60
2018-01-17T01:45:36.768Z,88.30
2018-01-17T01:48:04.250Z,87.70
2018-01-17T01:50:31.735Z,87.80
2018-01-17T01:53:00.040Z,87.90
2018-01-17T01:55:27.540Z,87.80
2018-01-17T01:57:55.037Z,87.90
2018-01-17T02:00:22.564Z,88.10
2018-01-17T02:02:50.050Z,87.90
2018-01-17T02:05:17.555Z,87.90
2018-01-17T02:07:45.071Z,87.90
2018-01-17T02:10:12.592Z,88.00
2018-01-17T02:12:40.099Z,87.90
2018-01-17T02:15:08.371Z,88.20
2018-01-17T02:17:35.859Z,88.10
2018-01-17T02:20:03.348Z,88.20
2018-01-17T02:22:30.860Z,88.20
2018-01-17T02:25:02.283Z,87.80
2018-01-17T02:27:29.782Z,88.20
2018-01-17T02:29:57.295Z,88.10
2018-01-17T02:32:26.538Z,88.90
2018-01-17T02:34:54.025Z,88.10
2018-01-17T02:37:32.048Z,88.40
2018-01-17T02:40:11.474Z,87.70
2018-01-17T02:42:38.995Z,87.60
2018-01-17T02:45:07.257Z,87.20
2018-01-17T02:47:35.724Z,87.10
2018-01-17T02:50:03.242Z,87.00
2018-01-17T02:52:30.762Z,87.00
2018-01-17T02:54:58.251Z,86.90
2018-01-17T02:57:25.821Z,86.90
2018-01-17T02:59:53.294Z,86.50
2018-01-17T03:02:20.787Z,86.20
2018-01-17T03:04:48.284Z,86.10
2018-01-17T03:07:16.539Z,86.50
2018-01-17T03:09:44.043Z,86.50
2018-01-17T03:12:12.322Z,86.40
2018-01-17T03:14:40.609Z,86.10
2018-01-17T03:17:08.863Z,86.30
2018-01-17T03:19:36.371Z,86.20
2018-01-17T03:22:04.615Z,86.10
2018-01-17T03:24:32.114Z,86.10
2018-01-17T03:26:59.632Z,86.40
2018-01-17T03:29:27.111Z,86.10
2018-01-17T03:31:54.600Z,86.60
2018-01-17T03:34:22.105Z,86.40
2018-01-17T03:36:50.405Z,87.00
2018-01-17T03:39:18.667Z,87.40
2018-01-17T03:41:46.169Z,87.40
2018-01-17T03:44:13.692Z,87.10
2018-01-17T03:46:41.175Z,86.80
2018-01-17T03:49:08.714Z,87.00
2018-01-17T03:51:36.181Z,86.90
2018-01-17T03:54:03.663Z,86.60
2018-01-17T03:56:31.181Z,86.90
2018-01-17T03:58:59.435Z,87.50
2018-01-17T04:01:26.926Z,87.50
2018-01-17T04:03:55.231Z,88.30
2018-01-17T04:06:23.475Z,87.80
2018-01-17T04:08:50.980Z,87.80
2018-01-17T04:11:19.257Z,87.40
2018-01-17T04:13:47.519Z,87.00
2018-01-17T04:16:14.999Z,86.90
2018-01-17T04:18:42.551Z,87.20
2018-01-17T04:21:10.040Z,87.30
2018-01-17T04:23:37.526Z,87.40
2018-01-17T04:26:05.810Z,88.00
2018-01-17T04:28:33.294Z,88.00
2018-01-17T04:31:01.586Z,88.60
2018-01-17T04:33:31.784Z,89.10
2018-01-17T04:35:59.282Z,89.10
2018-01-17T04:38:27.546Z,89.70
2018-01-17T04:40:55.070Z,89.70
2018-01-17T04:43:22.571Z,90.10
2018-01-17T04:46:01.379Z,90.10
2018-01-17T04:48:28.882Z,90.00
2018-01-17T04:50:56.371Z,90.10
2018-01-17T04:53:23.890Z,90.20
2018-01-17T04:55:51.398Z,90.20
2018-01-17T04:58:18.894Z,90.30
2018-01-17T05:00:47.179Z,90.30
2018-01-17T05:03:15.434Z,90.30
2018-01-17T05:05:42.978Z,90.30
2018-01-17T05:08:10.873Z,90.20
2018-01-17T05:10:38.352Z,90.20
2018-01-17T05:13:05.846Z,90.20
2018-01-17T05:15:33.363Z,90.20
2018-01-17T05:18:00.856Z,90.30
2018-01-17T05:20:29.115Z,90.30
2018-01-17T05:22:56.639Z,90.30
2018-01-17T05:25:24.163Z,90.40
2018-01-17T05:27:51.650Z,90.40
2018-01-17T05:30:19.168Z,90.30
2018-01-17T05:32:47.415Z,90.30
2018-01-17T05:35:14.913Z,90.30
2018-01-17T05:37:42.455Z,90.20
2018-01-17T05:40:09.962Z,90.20
2018-01-17T05:42:38.218Z,90.30
2018-01-17T05:45:05.726Z,90.30
2018-01-17T05:47:33.260Z,90.40
2018-01-17T05:50:00.742Z,90.50
2018-01-17T05:52:28.271Z,90.60
2018-01-17T05:54:55.791Z,90.70
2018-01-17T05:57:24.292Z,90.40
2018-01-17T05:59:51.816Z,90.80
2018-01-17T06:02:19.315Z,90.50
2018-01-17T06:04:46.839Z,90.40
2018-01-17T06:07:14.375Z,90.40
2018-01-17T06:09:42.643Z,90.30
2018-01-17T06:12:10.171Z,90.30
2018-01-17T06:14:37.679Z,90.40
2018-01-17T06:17:05.178Z,90.10
2018-01-17T06:19:32.675Z,90.20
2018-01-17T06:22:00.178Z,90.30
2018-01-17T06:24:27.662Z,90.20
2018-01-17T06:26:55.147Z,90.10
2018-01-17T06:29:22.643Z,89.90
2018-01-17T06:31:50.174Z,88.90
2018-01-17T06:34:17.655Z,88.10
2018-01-17T06:36:46.123Z,88.40
2018-01-17T06:39:14.395Z,88.60
2018-01-17T06:41:41.906Z,88.50
2018-01-17T06:44:09.411Z,88.90
2018-01-17T06:46:36.899Z,88.90
2018-01-17T06:49:04.403Z,89.50
2018-01-17T06:51:31.903Z,90.00
2018-01-17T06:54:00.151Z,90.50
2018-01-17T06:56:27.630Z,90.50
2018-01-17T06:58:55.135Z,90.60
2018-01-17T07:01:23.399Z,90.60
2018-01-17T07:03:50.903Z,90.70
2018-01-17T07:06:18.408Z,91.80
2018-01-17T07:08:45.912Z,92.50
2018-01-17T07:11:15.383Z,93.20
2018-01-17T07:13:42.911Z,94.50
2018-01-17T07:16:10.441Z,93.10
2018-01-17T07:18:38.850Z,91.90
2018-01-17T07:21:06.470Z,92.00
2018-01-17T07:23:34.281Z,92.20
2018-01-17T07:26:01.792Z,92.00
2018-01-17T07:28:30.096Z,91.30
2018-01-17T07:30:57.578Z,91.20
2018-01-17T07:33:25.092Z,91.30
2018-01-17T07:35:52.939Z,91.10
2018-01-17T07:39:47.217Z,90.50
2018-01-17T07:42:15.507Z,90.50
2018-01-17T07:44:43.772Z,90.60
2018-01-17T07:47:11.282Z,90.60
2018-01-17T07:49:38.830Z,90.70
2018-01-17T07:52:07.080Z,90.00
2018-01-17T07:54:34.575Z,90.00
2018-01-17T07:57:02.099Z,90.00
2018-01-17T07:59:29.590Z,90.50
2018-01-17T08:01:57.099Z,90.70
2018-01-17T08:04:24.627Z,90.60
2018-01-17T08:06:52.122Z,90.40
2018-01-17T08:09:19.619Z,89.90
2018-01-17T08:11:47.150Z,89.40
2018-01-17T08:14:14.642Z,88.80
2018-01-17T08:16:42.903Z,88.30
2018-01-17T08:19:10.422Z,88.30
2018-01-17T08:21:37.929Z,88.40
2018-01-17T08:24:05.466Z,88.80
2018-01-17T08:26:33.016Z,90.00
2018-01-17T08:29:01.282Z,90.30
2018-01-17T08:31:28.788Z,90.30
2018-01-17T08:33:56.315Z,90.40
2018-01-17T08:36:23.793Z,89.40
2018-01-17T08:38:51.488Z,88.70
2018-01-17T08:41:19.812Z,87.20
2018-01-17T08:43:47.326Z,87.10
2018-01-17T08:46:14.818Z,85.70
2018-01-17T08:48:43.090Z,85.20
2018-01-17T08:51:10.574Z,85.20
2018-01-17T08:53:38.826Z,82.90
2018-01-17T08:56:06.337Z,82.80
2018-01-17T08:58:34.606Z,82.50
2018-01-17T09:01:02.095Z,82.30
2018-01-17T09:03:29.619Z,82.70
2018-01-17T09:05:57.102Z,82.00
2018-01-17T09:08:24.597Z,81.10
2018-01-17T09:10:52.892Z,81.20
2018-01-17T09:13:21.048Z,81.10
2018-01-17T09:15:49.374Z,80.00
2018-01-17T09:18:16.886Z,80.00
2018-01-17T09:20:44.479Z,79.30
2018-01-17T09:23:11.982Z,79.00
2018-01-17T09:25:39.512Z,79.00
2018-01-17T09:28:07.019Z,79.90
2018-01-17T09:30:35.270Z,84.40
2018-01-17T09:33:02.803Z,84.30
2018-01-17T09:35:30.314Z,85.80
2018-01-17T09:37:57.821Z,85.80
2018-01-17T09:40:25.323Z,86.10
2018-01-17T09:42:52.822Z,86.40
2018-01-17T09:45:20.312Z,89.00
2018-01-17T09:47:48.604Z,88.00
2018-01-17T09:50:16.867Z,87.70
2018-01-17T09:52:44.378Z,87.70
2018-01-17T09:55:11.886Z,87.70
2018-01-17T09:57:39.423Z,88.20
2018-01-17T10:00:06.928Z,89.80
2018-01-17T10:02:34.460Z,90.30
2018-01-17T10:05:01.949Z,90.50
2018-01-17T10:07:29.437Z,90.20
2018-01-17T10:09:56.990Z,89.30
2018-01-17T10:12:24.491Z,88.70
2018-01-17T10:14:51.990Z,88.80
2018-01-17T10:17:20.301Z,87.50
2018-01-17T10:19:48.007Z,87.40
2018-01-17T10:22:15.486Z,87.10
2018-01-17T10:24:43.026Z,88.10
2018-01-17T10:27:10.555Z,88.40
2018-01-17T10:29:38.058Z,89.30
2018-01-17T10:32:05.576Z,89.10
2018-01-17T10:34:33.070Z,88.10
2018-01-17T10:37:00.559Z,87.70
2018-01-17T10:39:28.847Z,88.50
2018-01-17T10:41:57.102Z,80.50
2018-01-17T10:44:24.626Z,80.40
2018-01-17T10:46:52.175Z,84.90
2018-01-17T10:49:19.665Z,86.90
2018-01-17T10:51:47.699Z,86.90
2018-01-17T10:54:15.211Z,88.20
2018-01-17T10:56:42.716Z,87.10
2018-01-17T10:59:10.204Z,87.20
2018-01-17T11:01:37.714Z,86.80
2018-01-17T11:04:05.207Z,83.50
2018-01-17T11:06:33.670Z,83.40
2018-01-17T11:09:01.578Z,83.50
2018-01-17T11:11:29.084Z,82.70
2018-01-17T11:13:56.608Z,84.00
2018-01-17T11:16:24.139Z,83.40
2018-01-17T11:18:52.399Z,81.80
2018-01-17T11:21:19.890Z,81.60
2018-01-17T11:23:47.410Z,81.20
2018-01-17T11:26:14.897Z,81.40
2018-01-17T11:28:42.407Z,80.30
2018-01-17T11:31:10.695Z,82.00
2018-01-17T11:33:38.958Z,81.30
2018-01-17T11:36:06.459Z,81.30
2018-01-17T11:38:34.735Z,78.70
2018-01-17T11:41:02.274Z,78.60
2018-01-17T11:43:29.764Z,79.10
2018-01-17T11:45:57.279Z,77.20
2018-01-17T11:48:24.765Z,76.90
2018-01-17T11:50:52.255Z,77.20
2018-01-17T11:53:19.782Z,77.60
2018-01-17T11:55:47.278Z,76.80
2018-01-17T11:58:14.754Z,77.20
2018-01-17T12:00:42.266Z,77.00
2018-01-17T12:03:10.515Z,77.80
2018-01-17T12:05:38.011Z,77.80
2018-01-17T12:08:05.529Z,78.00
2018-01-17T12:10:33.015Z,78.30
2018-01-17T12:13:00.492Z,77.80
2018-01-17T12:15:28.772Z,77.90
2018-01-17T12:17:56.290Z,77.90
2018-01-17T12:24:24.843Z,78.20
2018-01-17T12:26:53.100Z,81.10
2018-01-17T12:29:20.602Z,81.10
2018-01-17T12:31:48.874Z,82.60
2018-01-17T12:34:17.123Z,81.70
2018-01-17T12:36:44.800Z,81.10
2018-01-17T12:39:12.305Z,79.40
2018-01-17T12:41:39.783Z,78.40
2018-01-17T12:44:08.030Z,77.90
2018-01-17T12:46:35.559Z,77.90
2018-01-17T12:49:03.061Z,77.10
2018-01-17T12:51:30.570Z,76.60
2018-01-17T12:53:58.086Z,77.10
2018-01-17T12:56:25.575Z,75.80
2018-01-17T12:58:53.100Z,77.20
2018-01-17T13:01:21.389Z,78.20
2018-01-17T13:03:48.885Z,78.20
2018-01-17T13:06:17.162Z,77.40
2018-01-17T13:08:45.455Z,77.70
2018-01-17T13:11:13.716Z,80.40
2018-01-17T13:13:41.233Z,80.40
2018-01-17T13:16:08.774Z,78.30
2018-01-17T13:18:36.287Z,79.50
2018-01-17T13:21:03.811Z,77.70
2018-01-17T13:23:32.107Z,78.20
2018-01-17T13:26:00.354Z,78.20
2018-01-17T13:28:27.967Z,78.00
2018-01-17T13:30:56.259Z,78.90
2018-01-17T13:33:24.550Z,78.20
2018-01-17T13:35:52.878Z,77.70
2018-01-17T13:38:20.383Z,77.70
2018-01-17T13:40:48.658Z,78.40
2018-01-17T13:43:16.138Z,77.70
2018-01-17T13:45:43.678Z,77.60
2018-01-17T13:48:11.168Z,77.10
2018-01-17T13:50:38.678Z,76.70
2018-01-17T13:53:06.946Z,77.70
2018-01-17T13:55:34.436Z,77.60
2018-01-17T13:58:03.611Z,78.40
2018-01-17T14:00:31.124Z,78.20
2018-01-17T14:02:58.611Z,79.10
2018-01-17T14:05:26.105Z,79.60
2018-01-17T14:07:53.607Z,79.30
2018-01-17T14:10:21.875Z,78.30
2018-01-17T14:12:49.388Z,78.30
2018-01-17T14:15:16.910Z,77.40
2018-01-17T14:17:44.402Z,78.10
2018-01-17T14:20:12.651Z,78.40
2018-01-17T14:22:40.166Z,78.40
2018-01-17T14:25:08.427Z,79.30
2018-01-17T14:27:35.910Z,79.10
2018-01-17T14:30:03.428Z,78.60
2018-01-17T14:32:30.937Z,77.90
2018-01-17T14:34:58.438Z,78.70
2018-01-17T14:37:26.748Z,78.50
2018-01-17T14:39:54.243Z,78.50
2018-01-17T14:42:21.769Z,78.70
2018-01-17T14:44:50.087Z,78.70
2018-01-17T14:47:17.574Z,78.50
2018-01-17T14:49:45.068Z,79.10
2018-01-17T14:52:12.571Z,78.80
2018-01-17T14:54:40.818Z,78.60
2018-01-17T14:57:08.313Z,78.50
2018-01-17T14:59:36.598Z,78.70
2018-01-17T15:02:04.139Z,78.70
2018-01-17T15:04:31.684Z,78.70
2018-01-17T15:07:00.131Z,78.60
2018-01-17T15:09:27.619Z,78.70
2018-01-17T15:11:55.882Z,79.20
2018-01-17T15:14:23.435Z,79.30
2018-01-17T15:16:50.932Z,79.40
2018-01-17T15:19:19.231Z,79.20
2018-01-17T15:21:47.522Z,79.90
2018-01-17T15:24:15.048Z,79.80
2018-01-17T15:26:42.539Z,80.60
2018-01-17T15:29:10.068Z,81.00
2018-01-17T15:31:37.559Z,81.30
2018-01-17T15:34:05.135Z,82.00
2018-01-17T15:36:32.643Z,81.60
2018-01-17T15:39:00.908Z,81.80
2018-01-17T15:41:28.395Z,81.80
2018-01-17T15:43:55.944Z,82.20
2018-01-17T15:46:23.474Z,82.70
2018-01-17T15:48:50.979Z,82.80
2018-01-17T15:51:20.219Z,82.60
2018-01-17T15:53:48.486Z,82.00
2018-01-17T15:56:15.991Z,82.00
2018-01-17T15:58:43.515Z,82.30
2018-01-17T16:01:11.014Z,82.30
2018-01-17T16:03:39.268Z,82.80
2018-01-17T16:06:06.798Z,82.90
2018-01-17T16:08:34.286Z,83.20
2018-01-17T16:11:02.804Z,83.70
2018-01-17T16:13:31.322Z,84.70
2018-01-17T16:15:59.578Z,85.80
2018-01-17T16:18:28.991Z,85.70
2018-01-17T16:20:56.761Z,86.40
2018-01-17T16:23:30.139Z,87.00
2018-01-17T16:25:57.693Z,87.10
2018-01-17T16:28:25.237Z,87.50
2018-01-17T16:30:52.722Z,87.90
2018-01-17T16:33:21.019Z,87.60
2018-01-17T16:35:49.339Z,87.40
2018-01-17T16:38:16.875Z,87.40
2018-01-17T16:40:45.205Z,87.20
2018-01-17T16:43:12.720Z,87.10
2018-01-17T16:45:40.217Z,86.90
2018-01-17T16:48:07.744Z,86.90
2018-01-17T16:50:35.243Z,86.70
2018-01-17T16:53:03.525Z,88.10
2018-01-17T16:55:31.043Z,88.20
2018-01-17T16:57:58.527Z,88.20
2018-01-17T17:00:26.044Z,88.40
2018-01-17T17:02:54.358Z,87.00
2018-01-17T17:05:21.867Z,86.90
2018-01-17T17:07:49.386Z,86.70
2018-01-17T17:10:16.962Z,86.20
2018-01-17T17:12:45.495Z,86.80
2018-01-17T17:15:13.022Z,86.50
2018-01-17T17:17:40.546Z,85.80
2018-01-17T17:20:08.046Z,85.70
2018-01-17T17:22:36.331Z,85.80
2018-01-17T17:25:04.611Z,85.30
2018-01-17T17:27:32.113Z,85.40
2018-01-17T17:29:59.621Z,85.30
2018-01-17T17:32:27.147Z,85.30
2018-01-17T17:34:55.460Z,85.80
2018-01-17T17:37:23.675Z,85.80
2018-01-17T17:39:51.207Z,85.80
2018-01-17T17:42:18.702Z,85.30
2018-01-17T17:44:46.271Z,84.70
2018-01-17T17:47:13.790Z,86.20
2018-01-17T17:49:42.050Z,84.10
2018-01-17T17:52:09.538Z,84.10
2018-01-17T17:54:37.068Z,84.10
2018-01-17T17:57:04.561Z,84.20
2018-01-17T17:59:32.063Z,84.70
2018-01-17T18:02:00.534Z,86.00
2018-01-17T18:04:28.030Z,87.40
2018-01-17T18:06:56.307Z,89.50
2018-01-17T18:09:25.634Z,90.00
2018-01-17T18:11:53.147Z,90.00
2018-01-17T18:14:21.422Z,90.80
2018-01-17T18:16:48.939Z,90.70
2018-01-17T18:19:16.495Z,91.10
2018-01-17T18:21:44.559Z,91.40
2018-01-17T18:24:12.082Z,91.00
2018-01-17T18:26:40.339Z,90.70
2018-01-17T18:29:07.831Z,90.70
2018-01-17T18:31:36.979Z,90.70
2018-01-17T18:34:04.491Z,90.60
2018-01-17T18:36:31.975Z,90.90
2018-01-17T18:38:59.532Z,90.70
2018-01-17T18:41:27.059Z,90.80
2018-01-17T18:43:54.591Z,90.60
2018-01-17T18:46:22.874Z,90.00
2018-01-17T18:48:50.951Z,90.00
2018-01-17T18:51:18.452Z,89.80
2018-01-17T18:53:46.092Z,89.60
2018-01-17T18:56:14.388Z,89.00
2018-01-17T18:58:43.165Z,88.20
2018-01-17T19:01:11.043Z,88.30
2018-01-17T19:03:38.546Z,88.90
2018-01-17T19:06:07.166Z,87.60
2018-01-17T19:08:35.599Z,87.60
2018-01-17T19:11:03.098Z,87.30
2018-01-17T19:13:30.588Z,86.60
2018-01-17T19:15:58.107Z,86.40
2018-01-17T19:18:26.579Z,85.80
2018-01-17T19:20:54.070Z,85.10
2018-01-17T19:23:21.592Z,84.60
2018-01-17T19:25:49.106Z,83.90
2018-01-17T19:28:16.597Z,83.40
2018-01-17T19:30:44.119Z,83.30
2018-01-17T19:33:11.636Z,83.40
2018-01-17T19:35:39.144Z,83.30
2018-01-17T19:38:06.654Z,83.30
2018-01-17T19:40:34.150Z,83.10
2018-01-17T19:43:01.675Z,83.40
2018-01-17T19:45:29.179Z,83.90
2018-01-17T19:47:56.688Z,83.90
2018-01-17T19:50:24.943Z,84.30
2018-01-17T19:52:52.470Z,84.30
2018-01-17T19:55:19.974Z,84.30
2018-01-17T19:57:47.467Z,84.30
2018-01-17T20:00:15.004Z,84.20
2018-01-17T20:02:42.554Z,83.20
2018-01-17T20:05:10.047Z,83.10
2018-01-17T20:07:37.579Z,83.30
2018-01-17T20:10:05.164Z,83.80
2018-01-17T20:12:32.735Z,83.80
2018-01-17T20:15:00.244Z,84.10
2018-01-17T20:17:28.563Z,83.80
2018-01-17T20:19:56.048Z,83.70
2018-01-17T20:22:23.591Z,83.40
2018-01-17T20:24:51.872Z,83.60
2018-01-17T20:27:19.374Z,83.60
2018-01-17T20:29:46.943Z,84.10
2018-01-17T20:32:14.451Z,81.50
2018-01-17T20:34:41.943Z,81.60
2018-01-17T20:37:09.451Z,81.70
2018-01-17T20:39:42.831Z,81.60
2018-01-17T20:42:10.416Z,81.60
2018-01-17T20:44:37.890Z,81.70
2018-01-17T20:47:06.151Z,81.30
2018-01-17T20:49:34.439Z,81.30
2018-01-17T20:52:01.939Z,81.30
2018-01-17T20:54:30.200Z,81.70
2018-01-17T20:56:57.741Z,81.70
2018-01-17T20:59:25.259Z,82.00
2018-01-17T21:01:52.746Z,82.20
2018-01-17T21:04:21.031Z,82.00
2018-01-17T21:06:49.289Z,81.80
2018-01-17T21:09:16.825Z,81.70
2018-01-17T21:11:44.354Z,81.80
2018-01-17T21:14:12.611Z,82.00
2018-01-17T21:16:40.107Z,82.00
2018-01-17T21:19:08.408Z,83.30
2018-01-17T21:21:35.923Z,82.60
2018-01-17T21:24:03.424Z,82.70
2018-01-17T21:26:30.947Z,83.00
2018-01-17T21:28:58.447Z,83.10
2018-01-17T21:31:25.949Z,83.70
2018-01-17T21:33:54.243Z,83.10
2018-01-17T21:36:22.786Z,83.30
2018-01-17T21:38:50.284Z,83.20
2018-01-17T21:41:17.799Z,83.10
2018-01-17T21:43:51.029Z,83.40
2018-01-17T21:46:18.548Z,83.40
2018-01-17T21:48:46.828Z,83.20
2018-01-17T21:51:15.094Z,82.90
2018-01-17T21:53:42.632Z,82.90
2018-01-17T21:56:10.131Z,83.00
2018-01-17T21:58:39.657Z,83.40
2018-01-17T22:01:07.203Z,83.90
2018-01-17T22:03:34.701Z,84.30
2018-01-17T22:06:02.264Z,84.10
2018-01-17T22:08:30.919Z,84.10
2018-01-17T22:10:58.432Z,84.00
2018-01-17T22:13:25.954Z,84.10
2018-01-17T22:15:53.472Z,84.10
2018-01-17T22:18:20.971Z,84.30
2018-01-17T22:20:49.240Z,84.00
2018-01-17T22:23:16.822Z,84.00
2018-01-17T22:25:45.128Z,84.10
2018-01-17T22:28:13.424Z,83.90
2018-01-17T22:30:40.934Z,83.80
2018-01-17T22:33:08.449Z,84.10
2018-01-17T22:35:36.731Z,84.50
2018-01-17T22:38:04.236Z,84.40
2018-01-17T22:40:31.730Z,84.90
2018-01-17T22:42:59.276Z,84.40
2018-01-17T22:45:26.806Z,84.50
2018-01-17T22:47:54.322Z,84.50
2018-01-17T22:50:21.822Z,84.30
2018-01-17T22:52:49.344Z,84.50
2018-01-17T22:55:17.603Z,84.40
2018-01-17T22:57:45.173Z,84.40
2018-01-17T23:00:19.336Z,84.40
2018-01-17T23:02:46.846Z,84.30
2018-01-17T23:05:14.335Z,84.00
2018-01-17T23:07:41.866Z,84.00
2018-01-17T23:10:09.352Z,83.90
2018-01-17T23:12:37.870Z,83.70
2018-01-17T23:15:05.390Z,83.10
2018-01-17T23:17:32.904Z,82.70
2018-01-17T23:20:00.400Z,82.60
2018-01-17T23:22:28.666Z,83.00
2018-01-17T23:24:56.156Z,82.90
2018-01-17T23:27:24.427Z,83.20
2018-01-17T23:29:51.956Z,83.30
2018-01-17T23:32:19.531Z,83.10
2018-01-17T23:34:47.111Z,83.30
2018-01-17T23:37:14.634Z,83.70
2018-01-17T23:39:42.902Z,83.00
2018-01-17T23:42:10.401Z,82.90
2018-01-17T23:44:37.923Z,83.00
2018-01-17T23:47:06.183Z,82.90
2018-01-17T23:49:33.694Z,82.90
2018-01-17T23:52:01.210Z,83.10
2018-01-17T23:54:28.747Z,83.20
2018-01-17T23:56:57.030Z,83.80
2018-01-17T23:59:24.539Z,83.80
